createdAt,value
2023-09-26T00:01:18.152Z,4.68
2023-09-26T00:03:44.748Z,8.15
2023-09-26T00:06:24.933Z,5.90
2023-09-26T00:08:56.234Z,4.85
2023-09-26T00:11:22.708Z,7.22
2023-09-26T00:13:50.892Z,5.53
2023-09-26T00:16:17.794Z,5.68
2023-09-26T00:18:44.469Z,5.85
2023-09-26T00:21:13.849Z,6.75
2023-09-26T00:23:40.304Z,5.25
2023-09-26T00:26:08.589Z,6.70
2023-09-26T00:28:38.383Z,7.82
2023-09-26T00:31:06.129Z,7.13
2023-09-26T00:33:33.516Z,5.63
2023-09-26T00:36:11.673Z,5.90
2023-09-26T00:38:38.670Z,7.32
2023-09-26T00:41:07.654Z,5.15
2023-09-26T00:43:36.533Z,7.05
2023-09-26T00:46:06.241Z,6.22
2023-09-26T00:48:33.495Z,6.30
2023-09-26T00:51:00.378Z,7.93
2023-09-26T00:53:28.286Z,7.20
2023-09-26T00:55:56.736Z,7.28
2023-09-26T00:58:24.232Z,5.68
2023-09-26T01:00:56.995Z,6.35
2023-09-26T01:03:23.702Z,6.97
2023-09-26T01:05:50.382Z,5.40
2023-09-26T01:08:17.653Z,6.93
2023-09-26T01:10:44.330Z,7.70
2023-09-26T01:13:11.828Z,6.18
2023-09-26T01:15:40.494Z,8.23
2023-09-26T01:18:14.542Z,4.43
2023-09-26T01:20:45.858Z,5.60
2023-09-26T01:23:14.356Z,7.80
2023-09-26T01:25:41.674Z,5.93
2023-09-26T01:28:09.809Z,7.15
2023-09-26T01:30:38.417Z,6.38
2023-09-26T01:33:09.526Z,8.63
2023-09-26T01:35:36.514Z,7.82
2023-09-26T01:38:02.952Z,7.03
2023-09-26T01:40:29.548Z,6.93
2023-09-26T01:42:56.068Z,5.93
2023-09-26T01:45:22.708Z,6.47
2023-09-26T01:47:51.871Z,4.85
2023-09-26T01:50:20.432Z,5.90
2023-09-26T01:52:47.957Z,7.25
2023-09-26T01:55:20.095Z,6.90
2023-09-26T01:57:46.880Z,6.15
2023-09-26T02:00:15.188Z,6.63
2023-09-26T02:02:43.739Z,5.35
2023-09-26T02:05:11.992Z,6.30
2023-09-26T02:07:38.915Z,5.78
2023-09-26T02:10:06.532Z,7.28
2023-09-26T02:12:36.705Z,6.57
2023-09-26T02:15:09.210Z,6.00
2023-09-26T02:17:42.172Z,6.00
2023-09-26T02:20:14.408Z,6.90
2023-09-26T02:22:52.747Z,5.93
2023-09-26T02:25:21.059Z,7.00
2023-09-26T02:27:48.657Z,6.00
2023-09-26T02:30:19.151Z,5.60
2023-09-26T02:32:45.712Z,6.53
2023-09-26T02:35:14.591Z,6.30
2023-09-26T02:37:41.654Z,6.75
2023-09-26T02:40:11.051Z,7.65
2023-09-26T02:42:46.962Z,6.63
2023-09-26T02:45:14.829Z,5.57
2023-09-26T02:47:42.739Z,6.32
2023-09-26T02:50:10.066Z,6.47
2023-09-26T02:52:38.271Z,5.50
2023-09-26T02:55:05.864Z,6.18
2023-09-26T02:57:34.419Z,6.28
2023-09-26T03:00:08.000Z,5.82
2023-09-26T03:02:34.984Z,6.30
2023-09-26T03:05:01.530Z,8.20
2023-09-26T03:07:28.040Z,7.45
2023-09-26T03:09:54.700Z,6.43
2023-09-26T03:12:21.305Z,5.97
2023-09-26T03:14:47.768Z,8.20
2023-09-26T03:17:15.117Z,8.40
2023-09-26T03:19:41.737Z,6.40
2023-09-26T03:22:08.239Z,6.50
2023-09-26T03:24:34.862Z,6.45
2023-09-26T03:27:01.357Z,8.25
2023-09-26T03:29:27.909Z,6.75
2023-09-26T03:31:54.737Z,7.13
2023-09-26T03:34:21.413Z,5.78
2023-09-26T03:36:48.356Z,6.10
2023-09-26T03:39:14.800Z,7.05
2023-09-26T03:41:41.358Z,6.88
2023-09-26T03:44:08.032Z,6.85
2023-09-26T03:46:34.748Z,5.15
2023-09-26T03:49:01.358Z,6.18
2023-09-26T03:51:27.905Z,6.97
2023-09-26T03:53:54.420Z,6.82
2023-09-26T03:56:20.946Z,7.00
2023-09-26T03:58:47.417Z,7.13
2023-09-26T04:01:16.164Z,7.70
2023-09-26T04:03:47.742Z,7.82
2023-09-26T04:06:14.894Z,7.13
2023-09-26T04:08:41.428Z,13.02
2023-09-26T04:11:17.939Z,8.75
2023-09-26T04:13:45.330Z,7.70
2023-09-26T04:16:12.004Z,7.45
2023-09-26T04:18:38.869Z,7.18
2023-09-26T04:21:11.921Z,7.07
2023-09-26T04:23:39.405Z,7.55
2023-09-26T04:26:16.478Z,7.13
2023-09-26T04:28:43.665Z,8.52
2023-09-26T04:31:18.192Z,6.13
2023-09-26T04:33:46.357Z,9.82
2023-09-26T04:36:12.996Z,6.70
2023-09-26T04:38:39.647Z,7.07
2023-09-26T04:41:06.282Z,8.38
2023-09-26T04:43:33.577Z,8.68
2023-09-26T04:46:00.702Z,7.53
2023-09-26T04:48:27.373Z,7.10
2023-09-26T04:50:55.335Z,7.78
2023-09-26T04:53:23.157Z,8.20
2023-09-26T04:55:50.002Z,8.80
2023-09-26T04:58:16.650Z,9.18
2023-09-26T05:00:43.195Z,9.52
2023-09-26T05:03:09.827Z,8.07
2023-09-26T05:05:36.408Z,8.00
2023-09-26T05:08:03.004Z,6.88
2023-09-26T05:10:29.536Z,7.45
2023-09-26T05:12:56.108Z,9.40
2023-09-26T05:15:22.693Z,7.78
2023-09-26T05:17:51.430Z,9.02
2023-09-26T05:20:18.287Z,8.40
2023-09-26T05:22:47.450Z,9.55
2023-09-26T05:25:14.389Z,7.78
2023-09-26T05:27:41.806Z,7.40
2023-09-26T05:30:12.837Z,7.00
2023-09-26T05:32:40.693Z,7.53
2023-09-26T05:35:08.458Z,9.07
2023-09-26T05:37:35.913Z,7.38
2023-09-26T05:40:08.349Z,7.53
2023-09-26T05:42:36.979Z,7.70
2023-09-26T05:45:09.154Z,8.95
2023-09-26T05:47:36.387Z,8.27
2023-09-26T05:50:04.855Z,7.82
2023-09-26T05:52:31.667Z,8.73
2023-09-26T05:54:58.423Z,6.80
2023-09-26T05:57:28.351Z,7.80
2023-09-26T05:59:54.844Z,8.18
2023-09-26T06:02:21.391Z,7.15
2023-09-26T06:04:47.971Z,6.65
2023-09-26T06:07:15.389Z,7.28
2023-09-26T06:09:53.048Z,6.70
2023-09-26T06:12:24.720Z,7.88
2023-09-26T06:14:51.966Z,7.47
2023-09-26T06:17:19.268Z,8.77
2023-09-26T06:19:48.131Z,8.15
2023-09-26T06:22:16.164Z,8.43
2023-09-26T06:24:43.272Z,9.93
2023-09-26T06:27:09.810Z,8.38
2023-09-26T06:29:40.434Z,8.32
2023-09-26T06:32:07.785Z,7.45
2023-09-26T06:34:35.572Z,10.13
2023-09-26T06:37:03.184Z,7.20
2023-09-26T06:39:31.144Z,9.52
2023-09-26T06:41:58.003Z,9.20
2023-09-26T06:44:24.480Z,7.97
2023-09-26T06:46:53.091Z,9.05
2023-09-26T06:49:19.967Z,10.50
2023-09-26T06:51:46.563Z,8.93
2023-09-26T06:54:13.047Z,8.50
2023-09-26T06:56:39.673Z,7.72
2023-09-26T06:59:06.875Z,8.20
2023-09-26T07:01:34.411Z,8.63
2023-09-26T07:04:01.093Z,8.85
2023-09-26T07:06:27.685Z,9.90
2023-09-26T07:08:56.671Z,8.75
2023-09-26T07:11:23.866Z,9.73
2023-09-26T07:13:50.644Z,9.57
2023-09-26T07:16:17.342Z,7.97
2023-09-26T07:18:44.187Z,8.00
2023-09-26T07:21:11.071Z,9.45
2023-09-26T07:23:38.459Z,10.27
2023-09-26T07:26:12.074Z,8.13
2023-09-26T07:28:42.462Z,9.48
2023-09-26T07:31:11.710Z,11.05
2023-09-26T07:33:39.530Z,12.10
2023-09-26T07:36:07.492Z,11.23
2023-09-26T07:38:34.497Z,11.93
2023-09-26T07:41:01.792Z,12.43
2023-09-26T07:43:33.948Z,15.27
2023-09-26T07:46:08.544Z,11.77
2023-09-26T07:48:36.114Z,13.13
2023-09-26T07:51:04.021Z,14.02
2023-09-26T07:53:30.782Z,14.00
2023-09-26T07:55:57.676Z,11.52
2023-09-26T07:58:24.557Z,13.35
2023-09-26T08:00:51.253Z,15.90
2023-09-26T08:03:17.839Z,10.85
2023-09-26T08:05:44.316Z,12.57
2023-09-26T08:08:10.842Z,11.27
2023-09-26T08:10:39.245Z,10.82
2023-09-26T08:13:09.560Z,13.27
2023-09-26T08:15:36.256Z,14.27
2023-09-26T08:18:04.144Z,9.98
2023-09-26T08:20:30.919Z,11.80
2023-09-26T08:22:57.471Z,12.27
2023-09-26T08:25:24.403Z,9.88
2023-09-26T08:27:50.984Z,10.13
2023-09-26T08:30:17.582Z,10.25
2023-09-26T08:32:44.237Z,12.40
2023-09-26T08:35:11.524Z,10.20
2023-09-26T08:37:39.474Z,10.95
2023-09-26T08:40:07.598Z,9.02
2023-09-26T08:42:38.130Z,8.77
2023-09-26T08:45:06.791Z,10.90
2023-09-26T08:47:34.795Z,9.05
2023-09-26T08:50:01.451Z,10.60
2023-09-26T08:52:28.389Z,10.23
2023-09-26T08:54:55.220Z,11.35
2023-09-26T08:57:22.450Z,10.10
2023-09-26T08:59:49.794Z,8.10
2023-09-26T09:02:16.562Z,9.30
2023-09-26T09:04:44.243Z,10.98
2023-09-26T09:07:12.020Z,9.35
2023-09-26T09:09:58.945Z,8.15
2023-09-26T09:12:25.447Z,10.05
2023-09-26T09:14:51.938Z,10.25
2023-09-26T09:17:18.848Z,9.88
2023-09-26T09:19:50.456Z,9.52
2023-09-26T09:22:22.007Z,9.90
2023-09-26T09:24:56.598Z,7.47
2023-09-26T09:27:30.427Z,7.57
2023-09-26T09:30:10.972Z,8.75
2023-09-26T09:32:37.665Z,8.95
2023-09-26T09:35:05.083Z,8.07
2023-09-26T09:37:31.880Z,7.50
2023-09-26T09:39:59.286Z,8.57
2023-09-26T09:42:26.034Z,9.80
2023-09-26T09:44:53.079Z,8.65
2023-09-26T09:47:24.526Z,7.97
2023-09-26T09:49:52.734Z,12.52
2023-09-26T09:52:20.973Z,10.88
2023-09-26T09:54:48.698Z,9.70
2023-09-26T09:57:16.631Z,9.15
2023-09-26T09:59:46.571Z,10.68
2023-09-26T10:02:16.752Z,8.73
2023-09-26T10:04:45.840Z,8.00
2023-09-26T10:07:13.266Z,9.13
2023-09-26T10:09:41.644Z,9.23
2023-09-26T10:12:09.335Z,10.00
2023-09-26T10:14:36.107Z,11.60
2023-09-26T10:17:05.933Z,8.25
2023-09-26T10:19:50.591Z,7.57
2023-09-26T10:22:20.883Z,8.18
2023-09-26T10:24:54.871Z,8.55
2023-09-26T10:27:51.776Z,11.35
2023-09-26T10:30:28.207Z,10.18
2023-09-26T10:32:56.383Z,8.60
2023-09-26T10:35:25.450Z,7.47
2023-09-26T10:38:19.430Z,7.88
2023-09-26T10:40:47.336Z,7.07
2023-09-26T10:45:45.775Z,7.22
2023-09-26T10:48:22.217Z,8.27
2023-09-26T10:50:49.839Z,7.25
2023-09-26T10:53:16.467Z,6.80
2023-09-26T10:55:43.364Z,5.90
2023-09-26T10:58:19.571Z,7.03
2023-09-26T11:00:53.678Z,7.97
2023-09-26T11:03:20.895Z,6.90
2023-09-26T11:08:34.472Z,6.28
2023-09-26T11:11:00.978Z,9.27
2023-09-26T11:13:28.080Z,7.72
2023-09-26T11:15:55.990Z,5.57
2023-09-26T11:18:23.717Z,6.38
2023-09-26T11:20:50.933Z,8.20
2023-09-26T11:23:41.623Z,6.78
2023-09-26T11:26:09.563Z,6.20
2023-09-26T11:28:36.587Z,6.75
2023-09-26T11:31:03.643Z,7.63
2023-09-26T11:33:30.648Z,7.03
2023-09-26T11:35:57.726Z,5.53
2023-09-26T11:38:24.452Z,6.40
2023-09-26T11:40:51.081Z,5.88
2023-09-26T11:43:18.543Z,8.18
2023-09-26T11:45:45.192Z,7.60
2023-09-26T11:48:11.807Z,6.63
2023-09-26T11:50:40.891Z,7.88
2023-09-26T11:53:08.344Z,8.13
2023-09-26T11:55:36.812Z,6.80
2023-09-26T11:58:04.432Z,8.30
2023-09-26T12:00:31.102Z,7.22
2023-09-26T12:02:58.370Z,8.23
2023-09-26T12:05:25.057Z,6.95
2023-09-26T12:07:52.624Z,6.07
2023-09-26T12:10:20.381Z,7.55
2023-09-26T12:12:47.436Z,6.43
2023-09-26T12:15:24.451Z,7.43
2023-09-26T12:17:55.965Z,7.30
2023-09-26T12:20:25.622Z,6.60
2023-09-26T12:22:55.012Z,9.02
2023-09-26T12:25:24.008Z,6.68
2023-09-26T12:27:54.671Z,7.20
2023-09-26T12:30:22.038Z,6.20
2023-09-26T12:32:50.495Z,7.40
2023-09-26T12:35:17.693Z,7.20
2023-09-26T12:37:46.945Z,9.55
2023-09-26T12:40:14.304Z,8.68
2023-09-26T12:42:42.371Z,5.97
2023-09-26T12:45:09.995Z,7.10
2023-09-26T12:47:37.169Z,7.85
2023-09-26T12:50:07.144Z,8.05
2023-09-26T12:52:34.162Z,8.85
2023-09-26T12:55:00.818Z,7.47
2023-09-26T12:57:27.434Z,7.47
2023-09-26T12:59:54.720Z,8.80
2023-09-26T13:02:23.898Z,9.85
2023-09-26T13:04:55.903Z,7.45
2023-09-26T13:07:23.448Z,8.35
2023-09-26T13:09:51.684Z,7.78
2023-09-26T13:12:18.791Z,7.05
2023-09-26T13:14:45.325Z,7.72
2023-09-26T13:17:13.648Z,7.30
2023-09-26T13:19:41.791Z,7.05
2023-09-26T13:22:09.693Z,6.75
2023-09-26T13:24:36.790Z,7.35
2023-09-26T13:27:05.013Z,6.57
2023-09-26T13:29:32.340Z,6.95
2023-09-26T13:32:00.659Z,6.70
2023-09-26T13:34:27.461Z,6.45
2023-09-26T13:36:54.124Z,6.72
2023-09-26T13:39:20.598Z,9.68
2023-09-26T13:41:47.268Z,7.82
2023-09-26T13:44:13.848Z,9.05
2023-09-26T13:46:40.834Z,6.75
2023-09-26T13:49:07.377Z,7.95
2023-09-26T13:51:33.951Z,6.85
2023-09-26T13:54:00.395Z,8.40
2023-09-26T13:56:27.717Z,7.32
2023-09-26T13:58:54.243Z,6.15
2023-09-26T14:01:20.760Z,8.10
2023-09-26T14:03:47.832Z,8.77
2023-09-26T14:06:14.578Z,7.80
2023-09-26T14:08:41.509Z,9.60
2023-09-26T14:11:08.136Z,6.97
2023-09-26T14:13:34.737Z,6.53
2023-09-26T14:16:01.399Z,7.18
2023-09-26T14:18:27.946Z,10.15
2023-09-26T14:20:54.501Z,7.45
2023-09-26T14:23:25.569Z,5.95
2023-09-26T14:25:53.196Z,7.70
2023-09-26T14:28:20.101Z,8.80
2023-09-26T14:30:48.423Z,8.68
2023-09-26T14:33:16.720Z,9.77
2023-09-26T14:35:44.276Z,9.07
2023-09-26T14:38:11.332Z,7.38
2023-09-26T14:40:37.975Z,6.82
2023-09-26T14:43:04.983Z,5.70
2023-09-26T14:46:02.456Z,8.82
2023-09-26T14:48:18.113Z,7.10
2023-09-26T14:50:44.674Z,5.82
2023-09-26T14:53:11.255Z,7.70
2023-09-26T14:55:37.813Z,6.00
2023-09-26T14:58:04.483Z,6.30
2023-09-26T15:00:30.929Z,7.03
2023-09-26T15:02:57.586Z,7.32
2023-09-26T15:05:24.128Z,7.45
2023-09-26T15:07:50.717Z,8.55
2023-09-26T15:10:17.182Z,6.53
2023-09-26T15:12:43.767Z,6.78
2023-09-26T15:15:10.676Z,6.97
2023-09-26T15:17:37.211Z,7.85
2023-09-26T15:20:04.034Z,6.38
2023-09-26T15:22:30.663Z,6.60
2023-09-26T15:24:57.387Z,7.18
2023-09-26T15:27:23.951Z,6.55
2023-09-26T15:29:50.503Z,6.70
2023-09-26T15:32:17.153Z,5.50
2023-09-26T15:34:45.215Z,6.78
2023-09-26T15:37:11.715Z,8.02
2023-09-26T15:39:38.205Z,6.80
2023-09-26T15:42:06.072Z,6.47
2023-09-26T15:44:40.895Z,7.63
2023-09-26T15:47:08.250Z,9.85
2023-09-26T15:49:49.221Z,7.50
2023-09-26T15:52:16.889Z,7.65
2023-09-26T15:54:43.370Z,5.68
2023-09-26T15:57:11.331Z,6.63
2023-09-26T15:59:38.055Z,6.03
2023-09-26T16:02:06.192Z,6.50
2023-09-26T16:04:34.363Z,7.07
2023-09-26T16:07:02.786Z,6.72
2023-09-26T16:09:29.445Z,6.07
2023-09-26T16:11:55.984Z,7.50
2023-09-26T16:14:22.597Z,5.57
2023-09-26T16:16:49.267Z,6.45
2023-09-26T16:19:17.084Z,7.53
2023-09-26T16:21:45.068Z,8.65
2023-09-26T16:24:11.583Z,6.35
2023-09-26T16:26:38.104Z,5.93
2023-09-26T16:29:04.754Z,7.60
2023-09-26T16:31:31.534Z,5.57
2023-09-26T16:33:58.127Z,6.93
2023-09-26T16:36:24.804Z,5.78
2023-09-26T16:38:52.699Z,9.18
2023-09-26T16:41:19.319Z,5.95
2023-09-26T16:43:45.990Z,7.45
2023-09-26T16:46:12.547Z,9.40
2023-09-26T16:48:39.173Z,7.68
2023-09-26T16:51:05.785Z,8.90
2023-09-26T16:53:32.741Z,7.93
2023-09-26T16:55:59.337Z,7.22
2023-09-26T16:58:26.034Z,6.40
2023-09-26T17:00:56.020Z,6.90
2023-09-26T17:03:23.045Z,7.45
2023-09-26T17:05:49.750Z,7.35
2023-09-26T17:08:17.181Z,6.55
2023-09-26T17:10:43.917Z,7.65
2023-09-26T17:13:10.453Z,6.15
2023-09-26T17:15:37.209Z,6.30
2023-09-26T17:18:03.759Z,6.57
2023-09-26T17:20:30.517Z,6.53
2023-09-26T17:22:57.055Z,6.28
2023-09-26T17:25:23.610Z,6.70
2023-09-26T17:27:50.066Z,6.15
2023-09-26T17:30:16.635Z,5.88
2023-09-26T17:32:45.584Z,6.75
2023-09-26T17:35:12.631Z,8.07
2023-09-26T17:37:39.336Z,9.35
2023-09-26T17:40:06.591Z,7.90
2023-09-26T17:42:33.100Z,7.15
2023-09-26T17:44:59.821Z,7.57
2023-09-26T17:47:29.712Z,8.13
2023-09-26T17:49:56.689Z,6.28
2023-09-26T17:52:23.273Z,8.05
2023-09-26T17:54:49.831Z,7.05
2023-09-26T17:57:16.413Z,8.30
2023-09-26T17:59:43.192Z,8.20
2023-09-26T18:02:09.899Z,6.97
2023-09-26T18:04:36.469Z,6.50
2023-09-26T18:07:03.391Z,8.43
2023-09-26T18:09:29.920Z,9.32
2023-09-26T18:11:56.390Z,7.55
2023-09-26T18:14:22.925Z,8.00
2023-09-26T18:16:49.460Z,10.48
2023-09-26T18:19:16.268Z,9.18
2023-09-26T18:21:42.844Z,7.18
2023-09-26T18:24:09.388Z,6.72
2023-09-26T18:26:35.839Z,6.30
2023-09-26T18:29:02.732Z,8.23
2023-09-26T18:31:29.551Z,8.63
2023-09-26T18:33:56.212Z,7.70
2023-09-26T18:36:24.549Z,6.78
2023-09-26T18:38:51.030Z,6.55
2023-09-26T18:41:19.320Z,7.07
2023-09-26T18:43:46.478Z,7.20
2023-09-26T18:46:13.571Z,6.82
2023-09-26T18:48:41.314Z,6.32
2023-09-26T18:51:07.963Z,8.80
2023-09-26T18:53:35.517Z,7.07
2023-09-26T18:56:02.537Z,9.30
2023-09-26T18:58:29.131Z,7.15
2023-09-26T19:00:55.670Z,7.50
2023-09-26T19:03:22.431Z,7.80
2023-09-26T19:05:51.164Z,8.82
2023-09-26T19:08:17.749Z,7.43
2023-09-26T19:10:44.811Z,6.55
2023-09-26T19:13:11.424Z,6.55
2023-09-26T19:15:37.949Z,6.90
2023-09-26T19:18:04.601Z,7.57
2023-09-26T19:20:32.760Z,6.13
2023-09-26T19:23:00.061Z,8.55
2023-09-26T19:25:28.095Z,7.97
2023-09-26T19:27:54.786Z,7.22
2023-09-26T19:30:21.389Z,7.28
2023-09-26T19:32:48.008Z,7.82
2023-09-26T19:35:14.736Z,7.57
2023-09-26T19:37:41.404Z,6.80
2023-09-26T19:40:08.276Z,10.15
2023-09-26T19:42:34.893Z,7.75
2023-09-26T19:45:01.494Z,7.47
2023-09-26T19:47:28.557Z,8.07
2023-09-26T19:49:55.492Z,7.38
2023-09-26T19:52:22.160Z,7.80
2023-09-26T19:54:48.838Z,7.65
2023-09-26T19:57:15.458Z,7.95
2023-09-26T19:59:44.266Z,8.30
2023-09-26T20:02:11.274Z,8.70
2023-09-26T20:04:37.926Z,9.50
2023-09-26T20:07:04.674Z,8.15
2023-09-26T20:09:31.231Z,8.45
2023-09-26T20:11:57.734Z,8.35
2023-09-26T20:14:24.379Z,7.60
2023-09-26T20:16:51.006Z,9.45
2023-09-26T20:19:18.022Z,8.00
2023-09-26T20:21:44.489Z,9.57
2023-09-26T20:24:11.121Z,9.02
2023-09-26T20:26:37.732Z,7.40
2023-09-26T20:29:04.291Z,8.48
2023-09-26T20:31:30.903Z,8.60
2023-09-26T20:33:58.473Z,7.55
2023-09-26T20:36:25.043Z,8.98
2023-09-26T20:38:51.686Z,8.50
2023-09-26T20:41:18.403Z,10.88
2023-09-26T20:43:45.326Z,7.85
2023-09-26T20:46:12.046Z,9.85
2023-09-26T20:48:38.877Z,9.95
2023-09-26T20:51:06.795Z,7.93
2023-09-26T20:53:34.027Z,11.88
2023-09-26T20:56:07.841Z,8.82
2023-09-26T20:58:35.318Z,9.00
2023-09-26T21:01:13.705Z,10.88
2023-09-26T21:03:41.070Z,8.60
2023-09-26T21:06:12.710Z,9.23
2023-09-26T21:08:39.906Z,8.15
2023-09-26T21:11:06.731Z,7.82
2023-09-26T21:13:33.620Z,10.48
2023-09-26T21:16:15.173Z,8.70
2023-09-26T21:18:48.325Z,7.78
2023-09-26T21:21:19.403Z,7.60
2023-09-26T21:23:47.908Z,9.05
2023-09-26T21:26:16.258Z,8.57
2023-09-26T21:28:43.739Z,8.40
2023-09-26T21:31:10.304Z,8.55
2023-09-26T21:33:38.128Z,9.00
2023-09-26T21:36:05.959Z,9.18
2023-09-26T21:38:33.140Z,11.45
2023-09-26T21:41:00.174Z,8.75
2023-09-26T21:43:27.306Z,8.77
2023-09-26T21:45:54.224Z,8.57
2023-09-26T21:48:20.866Z,10.25
2023-09-26T21:50:47.466Z,9.02
2023-09-26T21:53:14.257Z,9.93
2023-09-26T21:55:40.799Z,10.05
2023-09-26T21:58:07.302Z,9.23
2023-09-26T22:00:34.871Z,9.07
2023-09-26T22:03:05.699Z,8.80
2023-09-26T22:05:32.390Z,11.50
2023-09-26T22:08:00.446Z,8.85
2023-09-26T22:10:28.739Z,8.75
2023-09-26T22:12:56.165Z,11.43
2023-09-26T22:15:23.010Z,7.93
2023-09-26T22:17:49.650Z,8.40
2023-09-26T22:20:18.790Z,9.05
2023-09-26T22:22:46.421Z,7.65
2023-09-26T22:25:14.900Z,7.90
2023-09-26T22:27:41.738Z,8.70
2023-09-26T22:30:10.638Z,9.93
2023-09-26T22:32:38.313Z,11.32
2023-09-26T22:35:05.584Z,8.80
2023-09-26T22:37:34.481Z,11.00
2023-09-26T22:40:01.114Z,8.43
2023-09-26T22:42:27.744Z,8.73
2023-09-26T22:44:54.922Z,10.48
2023-09-26T22:47:21.753Z,10.52
2023-09-26T22:49:48.484Z,8.27
2023-09-26T22:52:15.355Z,8.73
2023-09-26T22:54:41.880Z,8.10
2023-09-26T22:57:08.435Z,8.77
2023-09-26T22:59:35.020Z,7.68
2023-09-26T23:02:02.067Z,10.40
2023-09-26T23:04:28.544Z,11.02
2023-09-26T23:06:55.726Z,7.93
2023-09-26T23:09:22.722Z,7.43
2023-09-26T23:11:49.233Z,10.45
2023-09-26T23:14:15.933Z,10.25
2023-09-26T23:16:42.611Z,10.77
2023-09-26T23:19:09.234Z,8.80
2023-09-26T23:21:35.721Z,10.32
2023-09-26T23:24:03.149Z,8.63
2023-09-26T23:26:29.698Z,9.30
2023-09-26T23:28:56.560Z,11.38
2023-09-26T23:31:23.163Z,9.50
2023-09-26T23:33:51.175Z,10.00
2023-09-26T23:36:19.009Z,8.55
2023-09-26T23:38:45.602Z,10.68
2023-09-26T23:41:12.382Z,9.52
2023-09-26T23:43:39.010Z,9.60
2023-09-26T23:46:06.235Z,8.02
2023-09-26T23:48:33.225Z,9.10
2023-09-26T23:51:00.229Z,11.30
2023-09-26T23:53:27.563Z,9.52
2023-09-26T23:55:54.621Z,9.93
2023-09-26T23:58:21.579Z,8.48
